sensor_id;sensor_type;location;lat;lon;timestamp;temperature;humidity
43185;DHT22;28803;52.308;19.096;2023-09-07T00:00:20;14.60;99.90
43185;DHT22;28803;52.308;19.096;2023-09-07T00:03:07;14.60;99.90
43185;DHT22;28803;52.308;19.096;2023-09-07T00:05:35;14.40;99.90
43185;DHT22;28803;52.308;19.096;2023-09-07T00:08:03;14.30;99.90
43185;DHT22;28803;52.308;19.096;2023-09-07T00:10:33;14.30;99.90
43185;DHT22;28803;52.308;19.096;2023-09-07T00:13:04;14.30;99.90
43185;DHT22;28803;52.308;19.096;2023-09-07T00:15:37;14.30;99.90
43185;DHT22;28803;52.308;19.096;2023-09-07T00:18:05;14.20;99.90
43185;DHT22;28803;52.308;19.096;2023-09-07T00:20:33;14.20;99.90
43185;DHT22;28803;52.308;19.096;2023-09-07T00:23:01;14.10;99.90
43185;DHT22;28803;52.308;19.096;2023-09-07T00:25:29;14.10;99.90
43185;DHT22;28803;52.308;19.096;2023-09-07T00:27:58;14.10;99.90
43185;DHT22;28803;52.308;19.096;2023-09-07T00:30:26;14.00;99.90
43185;DHT22;28803;52.308;19.096;2023-09-07T00:32:54;14.00;99.90
43185;DHT22;28803;52.308;19.096;2023-09-07T00:35:21;13.90;99.90
43185;DHT22;28803;52.308;19.096;2023-09-07T00:37:49;13.90;99.90
43185;DHT22;28803;52.308;19.096;2023-09-07T00:40:16;13.90;99.90
43185;DHT22;28803;52.308;19.096;2023-09-07T00:42:43;13.90;99.90
43185;DHT22;28803;52.308;19.096;2023-09-07T00:45:11;13.70;99.90
43185;DHT22;28803;52.308;19.096;2023-09-07T00:47:40;13.60;99.90
43185;DHT22;28803;52.308;19.096;2023-09-07T00:50:08;13.50;99.90
43185;DHT22;28803;52.308;19.096;2023-09-07T00:52:36;13.50;99.90
43185;DHT22;28803;52.308;19.096;2023-09-07T00:55:08;13.40;99.90
43185;DHT22;28803;52.308;19.096;2023-09-07T00:57:36;13.50;99.90
43185;DHT22;28803;52.308;19.096;2023-09-07T01:00:04;13.50;99.90
43185;DHT22;28803;52.308;19.096;2023-09-07T01:02:34;13.40;99.90
43185;DHT22;28803;52.308;19.096;2023-09-07T01:05:02;13.40;99.90
43185;DHT22;28803;52.308;19.096;2023-09-07T01:07:46;13.40;99.90
43185;DHT22;28803;52.308;19.096;2023-09-07T01:10:14;13.40;99.90
43185;DHT22;28803;52.308;19.096;2023-09-07T01:12:41;13.30;99.90
43185;DHT22;28803;52.308;19.096;2023-09-07T01:15:09;13.40;99.90
43185;DHT22;28803;52.308;19.096;2023-09-07T01:17:37;13.40;99.90
43185;DHT22;28803;52.308;19.096;2023-09-07T01:20:07;13.40;99.90
43185;DHT22;28803;52.308;19.096;2023-09-07T01:22:37;13.40;99.90
43185;DHT22;28803;52.308;19.096;2023-09-07T01:25:06;13.40;99.90
43185;DHT22;28803;52.308;19.096;2023-09-07T01:27:34;13.40;99.90
43185;DHT22;28803;52.308;19.096;2023-09-07T01:30:02;13.40;99.90
43185;DHT22;28803;52.308;19.096;2023-09-07T01:32:30;13.40;99.90
43185;DHT22;28803;52.308;19.096;2023-09-07T01:34:58;13.30;99.90
43185;DHT22;28803;52.308;19.096;2023-09-07T01:37:26;13.40;99.90
43185;DHT22;28803;52.308;19.096;2023-09-07T01:39:54;13.40;99.90
43185;DHT22;28803;52.308;19.096;2023-09-07T01:42:21;13.40;99.90
43185;DHT22;28803;52.308;19.096;2023-09-07T01:44:49;13.50;99.90
43185;DHT22;28803;52.308;19.096;2023-09-07T01:47:16;13.50;99.90
43185;DHT22;28803;52.308;19.096;2023-09-07T01:49:44;13.60;99.90
43185;DHT22;28803;52.308;19.096;2023-09-07T01:52:11;13.50;99.90
43185;DHT22;28803;52.308;19.096;2023-09-07T01:54:39;13.50;99.90
43185;DHT22;28803;52.308;19.096;2023-09-07T01:57:06;13.40;99.90
43185;DHT22;28803;52.308;19.096;2023-09-07T01:59:36;13.30;99.90
43185;DHT22;28803;52.308;19.096;2023-09-07T02:02:04;13.30;99.90
43185;DHT22;28803;52.308;19.096;2023-09-07T02:04:31;13.30;99.90
43185;DHT22;28803;52.308;19.096;2023-09-07T02:06:58;13.30;99.90
43185;DHT22;28803;52.308;19.096;2023-09-07T02:09:26;13.30;99.90
43185;DHT22;28803;52.308;19.096;2023-09-07T02:11:53;13.30;99.90
43185;DHT22;28803;52.308;19.096;2023-09-07T02:14:21;13.30;99.90
43185;DHT22;28803;52.308;19.096;2023-09-07T02:16:48;13.30;99.90
43185;DHT22;28803;52.308;19.096;2023-09-07T02:19:16;13.40;99.90
43185;DHT22;28803;52.308;19.096;2023-09-07T02:21:43;13.50;99.90
43185;DHT22;28803;52.308;19.096;2023-09-07T02:24:10;13.40;99.90
43185;DHT22;28803;52.308;19.096;2023-09-07T02:26:37;13.40;99.90
43185;DHT22;28803;52.308;19.096;2023-09-07T02:29:14;13.40;99.90
43185;DHT22;28803;52.308;19.096;2023-09-07T02:31:41;13.40;99.90
43185;DHT22;28803;52.308;19.096;2023-09-07T02:34:11;13.40;99.90
43185;DHT22;28803;52.308;19.096;2023-09-07T02:36:38;13.30;99.90
43185;DHT22;28803;52.308;19.096;2023-09-07T02:39:06;13.30;99.90
43185;DHT22;28803;52.308;19.096;2023-09-07T02:41:35;13.30;99.90
43185;DHT22;28803;52.308;19.096;2023-09-07T02:44:03;13.30;99.90
43185;DHT22;28803;52.308;19.096;2023-09-07T02:46:30;13.20;99.90
43185;DHT22;28803;52.308;19.096;2023-09-07T02:48:58;13.20;99.90
43185;DHT22;28803;52.308;19.096;2023-09-07T02:51:25;13.10;99.90
43185;DHT22;28803;52.308;19.096;2023-09-07T02:53:56;13.10;99.90
43185;DHT22;28803;52.308;19.096;2023-09-07T02:56:23;13.00;99.90
43185;DHT22;28803;52.308;19.096;2023-09-07T02:58:51;13.00;99.90
43185;DHT22;28803;52.308;19.096;2023-09-07T03:01:18;12.90;99.90
43185;DHT22;28803;52.308;19.096;2023-09-07T03:03:48;12.90;99.90
43185;DHT22;28803;52.308;19.096;2023-09-07T03:06:16;12.90;99.90
43185;DHT22;28803;52.308;19.096;2023-09-07T03:08:44;12.90;99.90
43185;DHT22;28803;52.308;19.096;2023-09-07T03:11:11;12.80;99.90
43185;DHT22;28803;52.308;19.096;2023-09-07T03:13:39;12.70;99.90
43185;DHT22;28803;52.308;19.096;2023-09-07T03:16:06;12.70;99.90
43185;DHT22;28803;52.308;19.096;2023-09-07T03:18:35;12.70;99.90
43185;DHT22;28803;52.308;19.096;2023-09-07T03:21:03;12.70;99.90
43185;DHT22;28803;52.308;19.096;2023-09-07T03:23:32;12.70;99.90
43185;DHT22;28803;52.308;19.096;2023-09-07T03:26:00;12.60;99.90
43185;DHT22;28803;52.308;19.096;2023-09-07T03:28:28;12.60;99.90
43185;DHT22;28803;52.308;19.096;2023-09-07T03:30:56;12.70;99.90
43185;DHT22;28803;52.308;19.096;2023-09-07T03:33:24;12.70;99.90
43185;DHT22;28803;52.308;19.096;2023-09-07T03:35:51;12.70;99.90
43185;DHT22;28803;52.308;19.096;2023-09-07T03:38:19;12.80;99.90
43185;DHT22;28803;52.308;19.096;2023-09-07T03:40:46;12.80;99.90
43185;DHT22;28803;52.308;19.096;2023-09-07T03:43:13;12.80;99.90
43185;DHT22;28803;52.308;19.096;2023-09-07T03:45:40;12.80;99.90
43185;DHT22;28803;52.308;19.096;2023-09-07T03:48:08;12.70;99.90
43185;DHT22;28803;52.308;19.096;2023-09-07T03:50:37;12.70;99.90
43185;DHT22;28803;52.308;19.096;2023-09-07T03:53:04;12.60;99.90
43185;DHT22;28803;52.308;19.096;2023-09-07T03:55:40;12.60;99.90
43185;DHT22;28803;52.308;19.096;2023-09-07T03:58:10;12.50;99.90
43185;DHT22;28803;52.308;19.096;2023-09-07T04:00:41;12.50;99.90
43185;DHT22;28803;52.308;19.096;2023-09-07T04:03:09;12.50;99.90
43185;DHT22;28803;52.308;19.096;2023-09-07T04:05:37;12.50;99.90
43185;DHT22;28803;52.308;19.096;2023-09-07T04:08:06;12.50;99.90
43185;DHT22;28803;52.308;19.096;2023-09-07T04:10:37;12.50;99.90
43185;DHT22;28803;52.308;19.096;2023-09-07T04:13:06;12.40;99.90
43185;DHT22;28803;52.308;19.096;2023-09-07T04:15:53;12.40;99.90
43185;DHT22;28803;52.308;19.096;2023-09-07T04:18:21;12.40;99.90
43185;DHT22;28803;52.308;19.096;2023-09-07T04:20:48;12.50;99.90
43185;DHT22;28803;52.308;19.096;2023-09-07T04:23:16;12.50;99.90
43185;DHT22;28803;52.308;19.096;2023-09-07T04:25:43;12.50;99.90
43185;DHT22;28803;52.308;19.096;2023-09-07T04:28:15;12.50;99.90
43185;DHT22;28803;52.308;19.096;2023-09-07T04:30:42;12.50;99.90
43185;DHT22;28803;52.308;19.096;2023-09-07T04:33:10;12.60;99.90
43185;DHT22;28803;52.308;19.096;2023-09-07T04:35:38;12.70;99.90
43185;DHT22;28803;52.308;19.096;2023-09-07T04:38:06;12.70;99.90
43185;DHT22;28803;52.308;19.096;2023-09-07T04:40:33;12.80;99.90
43185;DHT22;28803;52.308;19.096;2023-09-07T04:43:01;12.80;99.90
43185;DHT22;28803;52.308;19.096;2023-09-07T04:45:28;12.90;99.90
43185;DHT22;28803;52.308;19.096;2023-09-07T04:47:55;12.90;99.90
43185;DHT22;28803;52.308;19.096;2023-09-07T04:50:23;13.00;99.90
43185;DHT22;28803;52.308;19.096;2023-09-07T04:52:50;13.00;99.90
43185;DHT22;28803;52.308;19.096;2023-09-07T04:55:18;13.10;99.90
43185;DHT22;28803;52.308;19.096;2023-09-07T04:57:45;13.10;99.90
43185;DHT22;28803;52.308;19.096;2023-09-07T05:00:12;13.20;99.90
43185;DHT22;28803;52.308;19.096;2023-09-07T05:02:41;13.30;99.90
43185;DHT22;28803;52.308;19.096;2023-09-07T05:05:10;13.40;99.90
43185;DHT22;28803;52.308;19.096;2023-09-07T05:07:37;13.40;99.90
43185;DHT22;28803;52.308;19.096;2023-09-07T05:10:05;13.40;99.90
43185;DHT22;28803;52.308;19.096;2023-09-07T05:12:35;13.50;99.90
43185;DHT22;28803;52.308;19.096;2023-09-07T05:15:04;13.60;99.90
43185;DHT22;28803;52.308;19.096;2023-09-07T05:17:34;13.70;99.90
43185;DHT22;28803;52.308;19.096;2023-09-07T05:20:01;13.80;99.90
43185;DHT22;28803;52.308;19.096;2023-09-07T05:22:29;13.90;99.90
43185;DHT22;28803;52.308;19.096;2023-09-07T05:24:56;14.00;99.90
43185;DHT22;28803;52.308;19.096;2023-09-07T05:27:27;14.10;99.90
43185;DHT22;28803;52.308;19.096;2023-09-07T05:29:54;14.20;99.90
43185;DHT22;28803;52.308;19.096;2023-09-07T05:32:22;14.40;99.90
43185;DHT22;28803;52.308;19.096;2023-09-07T05:34:49;14.50;99.90
43185;DHT22;28803;52.308;19.096;2023-09-07T05:37:16;14.70;99.90
43185;DHT22;28803;52.308;19.096;2023-09-07T05:39:44;14.90;99.90
43185;DHT22;28803;52.308;19.096;2023-09-07T05:42:12;15.00;99.90
43185;DHT22;28803;52.308;19.096;2023-09-07T05:44:39;15.30;99.90
43185;DHT22;28803;52.308;19.096;2023-09-07T05:47:07;15.80;99.90
43185;DHT22;28803;52.308;19.096;2023-09-07T05:49:35;16.60;99.90
43185;DHT22;28803;52.308;19.096;2023-09-07T05:52:03;17.50;99.90
43185;DHT22;28803;52.308;19.096;2023-09-07T05:54:32;18.40;99.90
43185;DHT22;28803;52.308;19.096;2023-09-07T05:56:59;19.20;99.90
43185;DHT22;28803;52.308;19.096;2023-09-07T05:59:26;19.90;99.90
43185;DHT22;28803;52.308;19.096;2023-09-07T06:01:54;20.60;99.90
43185;DHT22;28803;52.308;19.096;2023-09-07T06:04:21;21.10;99.90
43185;DHT22;28803;52.308;19.096;2023-09-07T06:06:49;21.70;99.90
43185;DHT22;28803;52.308;19.096;2023-09-07T06:09:16;22.40;99.90
43185;DHT22;28803;52.308;19.096;2023-09-07T06:11:44;23.00;99.90
43185;DHT22;28803;52.308;19.096;2023-09-07T06:14:11;23.60;84.50
43185;DHT22;28803;52.308;19.096;2023-09-07T06:16:39;24.10;71.90
43185;DHT22;28803;52.308;19.096;2023-09-07T06:19:07;24.60;58.20
43185;DHT22;28803;52.308;19.096;2023-09-07T06:21:34;25.10;33.30
43185;DHT22;28803;52.308;19.096;2023-09-07T06:24:02;25.60;16.40
43185;DHT22;28803;52.308;19.096;2023-09-07T06:26:30;26.10;12.20
43185;DHT22;28803;52.308;19.096;2023-09-07T06:28:57;26.40;1.00
43185;DHT22;28803;52.308;19.096;2023-09-07T06:31:24;26.80;1.00
43185;DHT22;28803;52.308;19.096;2023-09-07T06:33:52;27.40;1.00
43185;DHT22;28803;52.308;19.096;2023-09-07T06:36:19;27.90;1.00
43185;DHT22;28803;52.308;19.096;2023-09-07T06:38:59;28.30;1.00
43185;DHT22;28803;52.308;19.096;2023-09-07T06:41:27;28.50;1.00
43185;DHT22;28803;52.308;19.096;2023-09-07T06:43:55;28.80;1.00
43185;DHT22;28803;52.308;19.096;2023-09-07T06:46:22;29.10;1.00
43185;DHT22;28803;52.308;19.096;2023-09-07T06:48:50;29.40;1.00
43185;DHT22;28803;52.308;19.096;2023-09-07T06:51:17;29.80;1.00
43185;DHT22;28803;52.308;19.096;2023-09-07T06:53:44;30.40;1.00
43185;DHT22;28803;52.308;19.096;2023-09-07T06:56:19;30.70;1.00
43185;DHT22;28803;52.308;19.096;2023-09-07T06:58:46;30.80;1.00
43185;DHT22;28803;52.308;19.096;2023-09-07T07:01:14;30.90;1.00
43185;DHT22;28803;52.308;19.096;2023-09-07T07:03:41;31.50;1.00
43185;DHT22;28803;52.308;19.096;2023-09-07T07:06:09;32.20;99.90
43185;DHT22;28803;52.308;19.096;2023-09-07T07:08:36;32.70;99.90
43185;DHT22;28803;52.308;19.096;2023-09-07T07:11:04;33.10;99.90
43185;DHT22;28803;52.308;19.096;2023-09-07T07:13:31;33.70;99.90
43185;DHT22;28803;52.308;19.096;2023-09-07T07:15:59;33.80;99.90
43185;DHT22;28803;52.308;19.096;2023-09-07T07:18:26;34.10;99.90
43185;DHT22;28803;52.308;19.096;2023-09-07T07:20:53;34.50;99.90
43185;DHT22;28803;52.308;19.096;2023-09-07T07:23:21;34.20;99.90
43185;DHT22;28803;52.308;19.096;2023-09-07T07:25:48;33.80;99.90
43185;DHT22;28803;52.308;19.096;2023-09-07T07:28:15;33.80;99.90
43185;DHT22;28803;52.308;19.096;2023-09-07T07:30:43;33.80;99.90
43185;DHT22;28803;52.308;19.096;2023-09-07T07:33:10;34.20;99.90
43185;DHT22;28803;52.308;19.096;2023-09-07T07:35:39;34.70;99.90
43185;DHT22;28803;52.308;19.096;2023-09-07T07:38:06;35.60;99.90
43185;DHT22;28803;52.308;19.096;2023-09-07T07:40:35;36.00;99.90
43185;DHT22;28803;52.308;19.096;2023-09-07T07:43:02;36.70;64.00
43185;DHT22;28803;52.308;19.096;2023-09-07T07:45:30;36.70;1.00
43185;DHT22;28803;52.308;19.096;2023-09-07T07:47:59;36.40;99.90
43185;DHT22;28803;52.308;19.096;2023-09-07T07:50:26;36.90;99.90
43185;DHT22;28803;52.308;19.096;2023-09-07T07:52:53;36.80;99.90
43185;DHT22;28803;52.308;19.096;2023-09-07T07:55:21;36.90;13.80
43185;DHT22;28803;52.308;19.096;2023-09-07T07:57:48;37.20;99.90
43185;DHT22;28803;52.308;19.096;2023-09-07T08:00:16;36.80;1.00
43185;DHT22;28803;52.308;19.096;2023-09-07T08:02:43;36.60;1.00
43185;DHT22;28803;52.308;19.096;2023-09-07T08:05:11;37.00;1.00
43185;DHT22;28803;52.308;19.096;2023-09-07T08:07:38;37.00;1.00
43185;DHT22;28803;52.308;19.096;2023-09-07T08:10:06;36.70;1.00
43185;DHT22;28803;52.308;19.096;2023-09-07T08:12:34;37.00;45.20
43185;DHT22;28803;52.308;19.096;2023-09-07T08:15:02;36.90;1.00
43185;DHT22;28803;52.308;19.096;2023-09-07T08:17:29;37.20;1.00
43185;DHT22;28803;52.308;19.096;2023-09-07T08:19:57;37.70;99.90
43185;DHT22;28803;52.308;19.096;2023-09-07T08:22:25;38.30;1.00
43185;DHT22;28803;52.308;19.096;2023-09-07T08:24:54;37.90;99.90
43185;DHT22;28803;52.308;19.096;2023-09-07T08:27:22;38.00;1.00
43185;DHT22;28803;52.308;19.096;2023-09-07T08:29:50;38.20;99.90
43185;DHT22;28803;52.308;19.096;2023-09-07T08:32:18;37.70;99.90
43185;DHT22;28803;52.308;19.096;2023-09-07T08:34:47;37.90;1.00
43185;DHT22;28803;52.308;19.096;2023-09-07T08:37:14;38.50;99.90
43185;DHT22;28803;52.308;19.096;2023-09-07T08:39:42;38.70;99.90
43185;DHT22;28803;52.308;19.096;2023-09-07T08:42:09;38.30;99.90
43185;DHT22;28803;52.308;19.096;2023-09-07T08:44:39;38.90;99.90
43185;DHT22;28803;52.308;19.096;2023-09-07T08:47:09;39.70;99.90
43185;DHT22;28803;52.308;19.096;2023-09-07T08:49:37;40.30;86.70
43185;DHT22;28803;52.308;19.096;2023-09-07T08:52:05;40.00;99.90
43185;DHT22;28803;52.308;19.096;2023-09-07T08:54:34;39.90;99.90
43185;DHT22;28803;52.308;19.096;2023-09-07T08:57:03;40.80;99.90
43185;DHT22;28803;52.308;19.096;2023-09-07T08:59:33;41.10;1.00
43185;DHT22;28803;52.308;19.096;2023-09-07T09:02:01;39.90;99.90
43185;DHT22;28803;52.308;19.096;2023-09-07T09:04:30;39.40;1.00
43185;DHT22;28803;52.308;19.096;2023-09-07T09:06:59;39.60;1.00
43185;DHT22;28803;52.308;19.096;2023-09-07T09:09:28;40.60;99.90
43185;DHT22;28803;52.308;19.096;2023-09-07T09:12:12;41.20;1.00
43185;DHT22;28803;52.308;19.096;2023-09-07T09:14:45;42.10;6.60
43185;DHT22;28803;52.308;19.096;2023-09-07T09:17:14;42.80;99.90
43185;DHT22;28803;52.308;19.096;2023-09-07T09:19:42;42.60;99.90
43185;DHT22;28803;52.308;19.096;2023-09-07T09:22:12;41.80;1.00
43185;DHT22;28803;52.308;19.096;2023-09-07T09:24:40;42.10;1.00
43185;DHT22;28803;52.308;19.096;2023-09-07T09:27:07;41.50;99.90
43185;DHT22;28803;52.308;19.096;2023-09-07T09:29:35;40.50;99.90
43185;DHT22;28803;52.308;19.096;2023-09-07T09:32:04;40.80;99.90
43185;DHT22;28803;52.308;19.096;2023-09-07T09:34:36;41.10;99.90
43185;DHT22;28803;52.308;19.096;2023-09-07T09:37:04;40.90;1.00
43185;DHT22;28803;52.308;19.096;2023-09-07T09:39:32;40.00;99.90
43185;DHT22;28803;52.308;19.096;2023-09-07T09:42:00;39.80;99.90
43185;DHT22;28803;52.308;19.096;2023-09-07T09:44:29;39.70;22.70
43185;DHT22;28803;52.308;19.096;2023-09-07T09:46:57;40.10;1.00
43185;DHT22;28803;52.308;19.096;2023-09-07T09:49:26;39.80;99.90
43185;DHT22;28803;52.308;19.096;2023-09-07T09:51:56;37.20;1.00
43185;DHT22;28803;52.308;19.096;2023-09-07T09:54:26;34.40;99.90
43185;DHT22;28803;52.308;19.096;2023-09-07T09:56:53;32.30;99.90
43185;DHT22;28803;52.308;19.096;2023-09-07T09:59:21;31.00;99.90
43185;DHT22;28803;52.308;19.096;2023-09-07T10:01:51;30.20;99.90
43185;DHT22;28803;52.308;19.096;2023-09-07T10:04:20;29.60;1.00
43185;DHT22;28803;52.308;19.096;2023-09-07T10:06:59;29.10;1.00
43185;DHT22;28803;52.308;19.096;2023-09-07T10:09:33;28.70;1.00
43185;DHT22;28803;52.308;19.096;2023-09-07T10:12:02;28.30;1.00
43185;DHT22;28803;52.308;19.096;2023-09-07T10:14:39;28.10;1.00
43185;DHT22;28803;52.308;19.096;2023-09-07T10:17:08;28.00;1.00
43185;DHT22;28803;52.308;19.096;2023-09-07T10:19:37;27.90;1.00
43185;DHT22;28803;52.308;19.096;2023-09-07T10:22:06;28.00;1.00
43185;DHT22;28803;52.308;19.096;2023-09-07T10:24:35;28.10;1.00
43185;DHT22;28803;52.308;19.096;2023-09-07T10:27:08;28.20;1.00
43185;DHT22;28803;52.308;19.096;2023-09-07T10:29:51;28.20;1.00
43185;DHT22;28803;52.308;19.096;2023-09-07T10:32:23;28.10;1.00
43185;DHT22;28803;52.308;19.096;2023-09-07T10:34:51;27.90;1.00
43185;DHT22;28803;52.308;19.096;2023-09-07T10:37:18;27.80;1.00
43185;DHT22;28803;52.308;19.096;2023-09-07T10:39:47;28.00;1.00
43185;DHT22;28803;52.308;19.096;2023-09-07T10:42:21;28.00;1.00
43185;DHT22;28803;52.308;19.096;2023-09-07T10:44:50;28.00;1.00
43185;DHT22;28803;52.308;19.096;2023-09-07T10:47:17;28.10;1.00
43185;DHT22;28803;52.308;19.096;2023-09-07T10:49:45;28.30;1.00
43185;DHT22;28803;52.308;19.096;2023-09-07T10:52:13;28.30;1.00
43185;DHT22;28803;52.308;19.096;2023-09-07T10:54:41;28.30;1.00
43185;DHT22;28803;52.308;19.096;2023-09-07T10:57:12;28.30;1.00
43185;DHT22;28803;52.308;19.096;2023-09-07T10:59:45;28.40;1.00
43185;DHT22;28803;52.308;19.096;2023-09-07T11:02:14;28.40;1.00
43185;DHT22;28803;52.308;19.096;2023-09-07T11:04:43;28.40;1.00
43185;DHT22;28803;52.308;19.096;2023-09-07T11:07:11;28.30;1.00
43185;DHT22;28803;52.308;19.096;2023-09-07T11:09:43;28.10;1.00
43185;DHT22;28803;52.308;19.096;2023-09-07T11:12:14;28.00;1.00
43185;DHT22;28803;52.308;19.096;2023-09-07T11:14:49;27.70;1.00
43185;DHT22;28803;52.308;19.096;2023-09-07T11:30:53;27.30;1.00
43185;DHT22;28803;52.308;19.096;2023-09-07T11:33:22;27.30;1.00
43185;DHT22;28803;52.308;19.096;2023-09-07T11:35:50;27.30;1.00
43185;DHT22;28803;52.308;19.096;2023-09-07T11:38:18;27.40;1.00
43185;DHT22;28803;52.308;19.096;2023-09-07T11:40:45;27.40;1.00
43185;DHT22;28803;52.308;19.096;2023-09-07T11:43:17;27.50;1.00
43185;DHT22;28803;52.308;19.096;2023-09-07T11:45:47;27.50;1.00
43185;DHT22;28803;52.308;19.096;2023-09-07T11:48:15;27.60;1.00
43185;DHT22;28803;52.308;19.096;2023-09-07T11:50:43;27.70;1.00
43185;DHT22;28803;52.308;19.096;2023-09-07T11:53:11;27.70;1.00
43185;DHT22;28803;52.308;19.096;2023-09-07T11:55:38;27.70;1.00
43185;DHT22;28803;52.308;19.096;2023-09-07T11:58:07;27.60;1.00
43185;DHT22;28803;52.308;19.096;2023-09-07T12:00:34;27.70;1.00
43185;DHT22;28803;52.308;19.096;2023-09-07T12:03:01;27.70;1.00
43185;DHT22;28803;52.308;19.096;2023-09-07T12:05:29;27.60;1.00
43185;DHT22;28803;52.308;19.096;2023-09-07T12:07:57;27.50;1.00
43185;DHT22;28803;52.308;19.096;2023-09-07T12:10:24;27.40;1.00
43185;DHT22;28803;52.308;19.096;2023-09-07T12:12:51;27.40;1.00
43185;DHT22;28803;52.308;19.096;2023-09-07T12:15:19;27.40;1.00
43185;DHT22;28803;52.308;19.096;2023-09-07T12:17:47;27.40;1.00
43185;DHT22;28803;52.308;19.096;2023-09-07T12:20:15;27.30;1.00
43185;DHT22;28803;52.308;19.096;2023-09-07T12:22:42;27.20;1.00
43185;DHT22;28803;52.308;19.096;2023-09-07T12:25:10;27.30;1.00
43185;DHT22;28803;52.308;19.096;2023-09-07T12:27:46;27.30;1.00
43185;DHT22;28803;52.308;19.096;2023-09-07T12:30:21;27.30;1.00
43185;DHT22;28803;52.308;19.096;2023-09-07T12:32:51;27.30;1.00
43185;DHT22;28803;52.308;19.096;2023-09-07T12:35:19;27.40;1.00
43185;DHT22;28803;52.308;19.096;2023-09-07T12:37:47;27.40;1.00
43185;DHT22;28803;52.308;19.096;2023-09-07T12:40:15;27.40;1.00
43185;DHT22;28803;52.308;19.096;2023-09-07T12:42:44;27.40;1.00
43185;DHT22;28803;52.308;19.096;2023-09-07T12:45:12;27.40;1.00
43185;DHT22;28803;52.308;19.096;2023-09-07T12:47:41;27.40;1.00
43185;DHT22;28803;52.308;19.096;2023-09-07T12:50:08;27.40;1.00
43185;DHT22;28803;52.308;19.096;2023-09-07T12:52:36;27.60;1.00
43185;DHT22;28803;52.308;19.096;2023-09-07T12:55:05;27.50;1.00
43185;DHT22;28803;52.308;19.096;2023-09-07T12:57:34;27.30;1.00
43185;DHT22;28803;52.308;19.096;2023-09-07T13:00:05;27.30;1.00
43185;DHT22;28803;52.308;19.096;2023-09-07T13:02:33;27.30;1.00
43185;DHT22;28803;52.308;19.096;2023-09-07T13:05:01;27.40;1.00
43185;DHT22;28803;52.308;19.096;2023-09-07T13:07:32;27.50;1.00
43185;DHT22;28803;52.308;19.096;2023-09-07T13:10:02;27.50;1.00
43185;DHT22;28803;52.308;19.096;2023-09-07T13:12:32;27.50;1.00
43185;DHT22;28803;52.308;19.096;2023-09-07T13:14:59;27.50;1.00
43185;DHT22;28803;52.308;19.096;2023-09-07T13:17:27;27.40;1.00
43185;DHT22;28803;52.308;19.096;2023-09-07T13:19:54;27.20;1.00
43185;DHT22;28803;52.308;19.096;2023-09-07T13:22:22;27.20;1.00
43185;DHT22;28803;52.308;19.096;2023-09-07T13:24:50;27.20;1.00
43185;DHT22;28803;52.308;19.096;2023-09-07T13:27:17;27.20;1.00
43185;DHT22;28803;52.308;19.096;2023-09-07T13:29:45;27.20;1.00
43185;DHT22;28803;52.308;19.096;2023-09-07T13:32:13;27.10;1.00
43185;DHT22;28803;52.308;19.096;2023-09-07T13:34:40;27.10;1.00
43185;DHT22;28803;52.308;19.096;2023-09-07T13:37:08;27.00;1.00
43185;DHT22;28803;52.308;19.096;2023-09-07T13:39:35;27.00;1.00
43185;DHT22;28803;52.308;19.096;2023-09-07T13:42:03;27.00;1.00
43185;DHT22;28803;52.308;19.096;2023-09-07T13:44:30;27.10;1.00
43185;DHT22;28803;52.308;19.096;2023-09-07T13:46:58;27.10;1.00
43185;DHT22;28803;52.308;19.096;2023-09-07T13:49:26;27.20;1.00
43185;DHT22;28803;52.308;19.096;2023-09-07T13:51:54;27.20;1.00
43185;DHT22;28803;52.308;19.096;2023-09-07T13:54:21;27.20;1.00
43185;DHT22;28803;52.308;19.096;2023-09-07T13:56:48;27.10;1.00
43185;DHT22;28803;52.308;19.096;2023-09-07T13:59:16;27.00;1.00
43185;DHT22;28803;52.308;19.096;2023-09-07T14:01:44;27.00;1.00
43185;DHT22;28803;52.308;19.096;2023-09-07T14:04:11;27.00;1.00
43185;DHT22;28803;52.308;19.096;2023-09-07T14:06:38;27.00;1.00
43185;DHT22;28803;52.308;19.096;2023-09-07T14:09:05;27.00;1.00
43185;DHT22;28803;52.308;19.096;2023-09-07T14:11:34;27.10;1.00
43185;DHT22;28803;52.308;19.096;2023-09-07T14:14:01;27.20;1.00
43185;DHT22;28803;52.308;19.096;2023-09-07T14:16:29;27.40;1.00
43185;DHT22;28803;52.308;19.096;2023-09-07T14:18:56;27.70;1.00
43185;DHT22;28803;52.308;19.096;2023-09-07T14:21:23;27.80;1.00
43185;DHT22;28803;52.308;19.096;2023-09-07T14:23:51;27.90;1.00
43185;DHT22;28803;52.308;19.096;2023-09-07T14:26:18;27.80;1.00
43185;DHT22;28803;52.308;19.096;2023-09-07T14:28:45;27.80;1.00
43185;DHT22;28803;52.308;19.096;2023-09-07T14:31:13;27.70;1.00
43185;DHT22;28803;52.308;19.096;2023-09-07T14:33:40;27.60;1.00
43185;DHT22;28803;52.308;19.096;2023-09-07T14:36:09;27.50;1.00
43185;DHT22;28803;52.308;19.096;2023-09-07T14:38:36;27.20;1.00
43185;DHT22;28803;52.308;19.096;2023-09-07T14:41:09;27.10;1.00
43185;DHT22;28803;52.308;19.096;2023-09-07T14:43:39;27.00;1.00
43185;DHT22;28803;52.308;19.096;2023-09-07T14:46:06;26.90;1.00
43185;DHT22;28803;52.308;19.096;2023-09-07T14:48:33;26.80;1.00
43185;DHT22;28803;52.308;19.096;2023-09-07T14:51:01;26.70;1.00
43185;DHT22;28803;52.308;19.096;2023-09-07T14:53:28;26.50;1.00
43185;DHT22;28803;52.308;19.096;2023-09-07T14:55:57;26.40;1.00
43185;DHT22;28803;52.308;19.096;2023-09-07T14:58:24;26.30;1.00
43185;DHT22;28803;52.308;19.096;2023-09-07T15:00:52;26.30;1.00
43185;DHT22;28803;52.308;19.096;2023-09-07T15:03:19;26.20;1.00
43185;DHT22;28803;52.308;19.096;2023-09-07T15:05:47;26.20;1.00
43185;DHT22;28803;52.308;19.096;2023-09-07T15:08:15;26.20;1.00
43185;DHT22;28803;52.308;19.096;2023-09-07T15:10:42;26.10;1.00
43185;DHT22;28803;52.308;19.096;2023-09-07T15:13:09;26.10;1.00
43185;DHT22;28803;52.308;19.096;2023-09-07T15:15:37;26.10;1.00
43185;DHT22;28803;52.308;19.096;2023-09-07T15:18:07;26.10;1.00
43185;DHT22;28803;52.308;19.096;2023-09-07T15:20:35;26.00;1.00
43185;DHT22;28803;52.308;19.096;2023-09-07T15:23:03;25.90;1.00
43185;DHT22;28803;52.308;19.096;2023-09-07T15:25:31;25.90;1.00
43185;DHT22;28803;52.308;19.096;2023-09-07T15:27:58;25.90;1.00
43185;DHT22;28803;52.308;19.096;2023-09-07T15:30:26;25.90;1.00
43185;DHT22;28803;52.308;19.096;2023-09-07T15:32:53;25.90;1.00
43185;DHT22;28803;52.308;19.096;2023-09-07T15:35:20;25.80;1.00
43185;DHT22;28803;52.308;19.096;2023-09-07T15:37:48;25.70;1.00
43185;DHT22;28803;52.308;19.096;2023-09-07T15:40:15;25.80;1.00
43185;DHT22;28803;52.308;19.096;2023-09-07T15:42:43;25.70;1.00